Time;durP1;ratioP1;P1;durP2;ratioP2;P2;SDS_P1;SDS_P2;PMS_P1;PMS_P2;Temp;Humidity;BMP_temperature;BMP_pressure;BME280_temperature;BME280_humidity;BME280_pressure;Samples;Min_cycle;Max_cycle;Signal;HPM_P1;HPM_P2
2022/06/05 00:00:09;;;;;;;15.20;12.68;;;;;;;;;;8301089;28;20420;-82
2022/06/05 00:04:41;;;;;;;15.90;12.40;;;;;;;;;;8297824;28;20045;-81
2022/06/05 00:08:56;;;;;;;16.27;13.13;;;;;;;;;;8302338;28;20068;-81
2022/06/05 00:13:07;;;;;;;14.55;12.02;;;;;;;;;;8303114;28;20107;-83
2022/06/05 00:17:15;;;;;;;16.30;11.63;;;;;;;;;;8301783;28;20050;-85
2022/06/05 00:21:20;;;;;;;15.45;12.45;;;;;;;;;;8300989;28;20397;-82
2022/06/05 00:25:26;;;;;;;15.45;12.23;;;;;;;;;;8301688;28;20052;-81
2022/06/05 00:29:43;;;;;;;13.57;11.35;;;;;;;;;;8301344;28;20034;-81
2022/06/05 00:33:46;;;;;;;14.45;11.80;;;;;;;;;;8299532;28;20115;-82
2022/06/05 00:38:02;;;;;;;16.92;11.95;;;;;;;;;;8293973;28;20046;-81
2022/06/05 00:42:07;;;;;;;16.70;12.57;;;;;;;;;;8294936;28;20050;-81
2022/06/05 00:46:09;;;;;;;17.75;12.63;;;;;;;;;;8299457;28;20041;-81
2022/06/05 00:50:16;;;;;;;18.60;13.13;;;;;;;;;;8300104;28;20046;-82
2022/06/05 00:54:20;;;;;;;16.90;12.70;;;;;;;;;;8300561;28;20046;-81
2022/06/05 00:58:23;;;;;;;21.67;13.60;;;;;;;;;;8298262;28;20060;-82
2022/06/05 01:02:26;;;;;;;18.70;13.10;;;;;;;;;;8295619;28;20045;-81
2022/06/05 01:06:29;;;;;;;45.88;16.50;;;;;;;;;;8299690;28;20062;-82
2022/06/05 01:10:43;;;;;;;28.38;16.42;;;;;;;;;;8298379;28;20046;-82
2022/06/05 01:14:57;;;;;;;38.47;17.55;;;;;;;;;;8295023;28;20046;-82
2022/06/05 01:19:18;;;;;;;42.00;19.58;;;;;;;;;;8293943;28;20054;-82
2022/06/05 01:23:50;;;;;;;40.53;21.58;;;;;;;;;;8287084;28;20052;-88
2022/06/05 01:27:58;;;;;;;31.98;17.77;;;;;;;;;;8289541;28;20073;-81
2022/06/05 01:32:06;;;;;;;36.65;18.85;;;;;;;;;;8296073;28;20099;-81
2022/06/05 01:36:13;;;;;;;29.23;18.83;;;;;;;;;;8291865;28;20088;-87
2022/06/05 01:40:21;;;;;;;33.22;18.35;;;;;;;;;;8294812;28;20050;-86
2022/06/05 01:44:32;;;;;;;28.90;17.13;;;;;;;;;;8294142;28;20049;-84
2022/06/05 01:48:42;;;;;;;24.03;15.87;;;;;;;;;;8294249;28;20038;-83
2022/06/05 01:52:48;;;;;;;27.55;15.85;;;;;;;;;;8292271;28;20034;-81
2022/06/05 01:56:55;;;;;;;26.50;16.98;;;;;;;;;;8294661;28;20104;-80
2022/06/05 02:01:03;;;;;;;26.10;17.65;;;;;;;;;;8297464;28;20041;-81
2022/06/05 02:05:10;;;;;;;24.52;17.30;;;;;;;;;;8295515;28;20046;-82
2022/06/05 02:09:22;;;;;;;25.25;16.75;;;;;;;;;;8233059;28;20483;-82
2022/06/05 02:13:24;;;;;;;26.88;17.33;;;;;;;;;;8230358;28;20121;-82
2022/06/05 02:17:30;;;;;;;23.25;16.05;;;;;;;;;;8232939;28;20062;-82
2022/06/05 02:21:33;;;;;;;22.63;15.63;;;;;;;;;;8231801;28;20058;-82
2022/06/05 02:25:37;;;;;;;24.50;16.02;;;;;;;;;;8233315;28;20407;-82
2022/06/05 02:29:41;;;;;;;24.02;17.42;;;;;;;;;;8232950;28;20051;-85
2022/06/05 02:33:54;;;;;;;22.30;16.90;;;;;;;;;;8232115;28;20047;-82
2022/06/05 02:38:13;;;;;;;25.25;16.63;;;;;;;;;;8231950;28;20047;-81
2022/06/05 02:42:25;;;;;;;19.60;15.48;;;;;;;;;;8231136;28;20101;-82
2022/06/05 02:46:36;;;;;;;19.80;14.60;;;;;;;;;;8227525;28;20046;-82
2022/06/05 02:50:45;;;;;;;21.10;15.52;;;;;;;;;;8226242;28;20090;-82
2022/06/05 02:54:52;;;;;;;20.95;16.75;;;;;;;;;;8226463;28;20054;-81
2022/06/05 02:58:56;;;;;;;19.92;15.10;;;;;;;;;;8232005;28;20050;-81
2022/06/05 03:07:21;;;;;;;21.08;15.70;;;;;;;;;;8267114;28;20050;-82
2022/06/05 03:11:24;;;;;;;20.00;15.55;;;;;;;;;;8294550;28;20056;-82
2022/06/05 03:15:26;;;;;;;21.02;16.40;;;;;;;;;;8296278;28;20046;-82
2022/06/05 03:19:29;;;;;;;23.95;16.40;;;;;;;;;;8296015;28;20050;-82
2022/06/05 03:23:33;;;;;;;23.55;17.60;;;;;;;;;;8296548;28;20057;-82
2022/06/05 03:27:36;;;;;;;21.85;16.15;;;;;;;;;;8296683;28;20042;-82
2022/06/05 03:31:39;;;;;;;20.70;15.88;;;;;;;;;;8298619;28;20132;-82
2022/06/05 03:35:44;;;;;;;23.27;16.60;;;;;;;;;;8302276;28;20050;-82
2022/06/05 03:39:48;;;;;;;22.10;17.85;;;;;;;;;;8296343;28;20050;-82
2022/06/05 03:43:51;;;;;;;26.38;18.42;;;;;;;;;;8295276;28;20516;-82
2022/06/05 03:47:53;;;;;;;29.20;18.23;;;;;;;;;;8302756;28;20060;-86
2022/06/05 03:51:56;;;;;;;26.45;19.67;;;;;;;;;;8300729;28;20046;-82
2022/06/05 03:56:00;;;;;;;29.67;20.30;;;;;;;;;;8300229;28;20057;-82
2022/06/05 04:00:05;;;;;;;25.60;20.25;;;;;;;;;;8302301;28;20113;-82
2022/06/05 04:04:08;;;;;;;31.27;23.77;;;;;;;;;;8300268;28;20046;-82
2022/06/05 04:08:13;;;;;;;24.90;19.35;;;;;;;;;;8302501;28;20523;-87
2022/06/05 04:12:17;;;;;;;32.63;27.55;;;;;;;;;;8303165;28;20478;-82
2022/06/05 04:16:23;;;;;;;31.95;23.83;;;;;;;;;;8302209;28;20050;-81
2022/06/05 04:20:25;;;;;;;27.73;21.30;;;;;;;;;;8302736;28;20137;-88
2022/06/05 04:24:28;;;;;;;31.65;24.15;;;;;;;;;;8300803;28;20045;-83
2022/06/05 04:28:32;;;;;;;31.73;22.65;;;;;;;;;;8302185;28;20056;-82
2022/06/05 04:32:35;;;;;;;28.70;20.45;;;;;;;;;;8301747;28;20057;-82
2022/06/05 04:36:37;;;;;;;34.65;25.45;;;;;;;;;;8301539;28;20089;-89
2022/06/05 04:40:40;;;;;;;30.33;23.20;;;;;;;;;;8301150;28;20042;-82
2022/06/05 04:44:44;;;;;;;29.17;21.95;;;;;;;;;;8298792;28;20128;-81
2022/06/05 04:48:47;;;;;;;27.92;21.52;;;;;;;;;;8300193;28;20046;-81
2022/06/05 04:52:49;;;;;;;32.88;22.08;;;;;;;;;;8300066;28;20359;-82
2022/06/05 04:56:52;;;;;;;27.25;20.08;;;;;;;;;;8298994;28;20053;-81
2022/06/05 05:00:56;;;;;;;24.83;20.10;;;;;;;;;;8297876;28;20125;-82
2022/06/05 05:04:59;;;;;;;30.55;17.35;;;;;;;;;;8299066;28;20050;-81
2022/06/05 05:09:02;;;;;;;23.38;17.55;;;;;;;;;;8292880;28;20049;-82
2022/06/05 05:13:05;;;;;;;18.45;15.43;;;;;;;;;;8299179;28;20045;-82
2022/06/05 05:17:09;;;;;;;20.35;15.90;;;;;;;;;;8298539;28;20046;-81
2022/06/05 05:21:14;;;;;;;23.50;17.38;;;;;;;;;;8298165;28;20282;-81
2022/06/05 05:25:16;;;;;;;24.00;16.75;;;;;;;;;;8294475;28;20096;-81
2022/06/05 05:29:19;;;;;;;21.33;15.25;;;;;;;;;;8299847;28;20413;-81
2022/06/05 05:33:24;;;;;;;18.15;14.45;;;;;;;;;;8298700;28;20072;-87
2022/06/05 05:37:27;;;;;;;17.73;14.52;;;;;;;;;;8298956;28;20065;-81
2022/06/05 05:45:50;;;;;;;18.02;13.98;;;;;;;;;;8297768;28;20049;-81
2022/06/05 05:49:56;;;;;;;18.17;13.38;;;;;;;;;;8298280;28;20065;-81
2022/06/05 05:53:59;;;;;;;16.52;12.80;;;;;;;;;;8295048;28;20462;-83
2022/06/05 05:58:01;;;;;;;18.98;13.98;;;;;;;;;;8297155;28;20441;-81
2022/06/05 06:02:06;;;;;;;17.15;12.10;;;;;;;;;;8299954;28;20042;-80
2022/06/05 06:06:10;;;;;;;13.35;10.85;;;;;;;;;;8303361;28;20058;-82
2022/06/05 06:10:14;;;;;;;19.17;11.55;;;;;;;;;;8301646;28;20054;-81
2022/06/05 06:14:17;;;;;;;11.65;9.20;;;;;;;;;;8301445;28;20049;-80
2022/06/05 06:18:19;;;;;;;11.82;9.32;;;;;;;;;;8297425;28;20065;-80
2022/06/05 06:22:24;;;;;;;10.25;7.45;;;;;;;;;;8292290;28;20490;-80
2022/06/05 06:26:27;;;;;;;8.18;6.70;;;;;;;;;;8252738;28;20054;-81
2022/06/05 06:30:32;;;;;;;7.00;6.22;;;;;;;;;;8294544;28;20473;-79
2022/06/05 06:34:36;;;;;;;7.63;5.00;;;;;;;;;;8293079;28;20065;-79
2022/06/05 06:38:41;;;;;;;7.82;5.00;;;;;;;;;;8295131;28;20042;-80
2022/06/05 06:42:44;;;;;;;7.72;4.60;;;;;;;;;;8292370;28;20046;-79
2022/06/05 06:46:47;;;;;;;7.25;4.55;;;;;;;;;;8295116;28;20482;-79
2022/06/05 06:50:50;;;;;;;5.88;4.30;;;;;;;;;;8296099;28;20050;-85
2022/06/05 06:54:54;;;;;;;6.25;4.00;;;;;;;;;;8289503;28;20545;-79
2022/06/05 06:58:59;;;;;;;5.43;3.80;;;;;;;;;;8289313;28;20480;-79
2022/06/05 07:03:02;;;;;;;7.22;4.00;;;;;;;;;;8297598;28;20045;-79
2022/06/05 07:07:07;;;;;;;4.95;3.80;;;;;;;;;;8262572;28;20049;-80
2022/06/05 07:11:21;;;;;;;6.30;3.65;;;;;;;;;;8296568;28;20049;-79
2022/06/05 07:15:36;;;;;;;5.25;3.63;;;;;;;;;;8287919;28;20049;-80
2022/06/05 07:19:41;;;;;;;9.38;4.03;;;;;;;;;;8289926;28;20045;-87
2022/06/05 07:23:47;;;;;;;10.65;3.40;;;;;;;;;;8292111;28;20460;-81
2022/06/05 07:27:53;;;;;;;5.60;3.65;;;;;;;;;;8293942;28;20437;-80
2022/06/05 07:31:56;;;;;;;4.22;3.20;;;;;;;;;;8291171;28;20046;-80
2022/06/05 07:36:00;;;;;;;5.43;3.35;;;;;;;;;;8296278;28;20041;-80
2022/06/05 07:40:03;;;;;;;5.28;3.30;;;;;;;;;;8292567;28;20127;-80
2022/06/05 07:44:08;;;;;;;4.40;2.97;;;;;;;;;;8292491;28;20632;-80
2022/06/05 07:48:12;;;;;;;4.50;3.25;;;;;;;;;;8296152;28;20049;-88
2022/06/05 07:56:35;;;;;;;4.28;2.97;;;;;;;;;;8292320;28;20037;-83
2022/06/05 08:00:39;;;;;;;17.38;4.10;;;;;;;;;;8297407;28;20137;-87
2022/06/05 08:04:44;;;;;;;5.57;2.90;;;;;;;;;;8290917;28;20038;-80
2022/06/05 08:08:47;;;;;;;4.25;3.28;;;;;;;;;;8290317;28;20054;-80
2022/06/05 08:12:50;;;;;;;5.03;3.10;;;;;;;;;;8296710;28;20046;-80
2022/06/05 08:16:56;;;;;;;3.92;2.97;;;;;;;;;;8296442;28;20213;-80
2022/06/05 08:21:00;;;;;;;5.22;2.95;;;;;;;;;;8302408;28;20398;-80
2022/06/05 08:25:03;;;;;;;5.95;3.05;;;;;;;;;;8302247;28;20046;-80
2022/06/05 08:29:07;;;;;;;3.60;2.75;;;;;;;;;;8301204;28;20048;-80
2022/06/05 08:33:11;;;;;;;4.65;2.90;;;;;;;;;;8302199;28;20050;-79
2022/06/05 08:41:47;;;;;;;3.80;2.60;;;;;;;;;;8295611;28;20449;-80
2022/06/05 08:46:00;;;;;;;3.92;2.47;;;;;;;;;;8301115;28;20177;-80
2022/06/05 08:50:22;;;;;;;2.90;2.55;;;;;;;;;;8301499;28;20522;-80
2022/06/05 08:54:42;;;;;;;4.03;3.08;;;;;;;;;;8298902;28;20045;-81
2022/06/05 08:58:51;;;;;;;4.40;2.88;;;;;;;;;;8299127;28;20566;-80
2022/06/05 09:03:02;;;;;;;4.05;3.20;;;;;;;;;;8295060;28;20038;-82
2022/06/05 09:07:11;;;;;;;3.93;2.60;;;;;;;;;;8295631;28;20218;-80
2022/06/05 09:11:19;;;;;;;5.15;3.13;;;;;;;;;;8292546;28;20305;-79
2022/06/05 09:15:27;;;;;;;5.32;2.80;;;;;;;;;;8291572;28;20461;-79
2022/06/05 09:19:31;;;;;;;6.18;3.00;;;;;;;;;;8289562;28;20056;-81
2022/06/05 09:23:49;;;;;;;5.75;3.10;;;;;;;;;;8290622;28;20104;-82
2022/06/05 09:28:17;;;;;;;4.20;3.05;;;;;;;;;;8290969;28;20477;-81
2022/06/05 09:32:39;;;;;;;4.60;3.05;;;;;;;;;;8288931;28;20100;-83
2022/06/05 09:36:46;;;;;;;5.28;2.88;;;;;;;;;;8292125;28;20049;-79
2022/06/05 09:41:02;;;;;;;5.32;3.20;;;;;;;;;;8292232;28;20113;-79
2022/06/05 09:45:16;;;;;;;7.70;3.38;;;;;;;;;;8285651;28;20074;-80
2022/06/05 09:49:25;;;;;;;6.05;3.20;;;;;;;;;;8289025;28;20069;-79
2022/06/05 09:53:34;;;;;;;6.90;3.15;;;;;;;;;;8292283;28;20042;-85
2022/06/05 10:02:16;;;;;;;3.20;2.80;;;;;;;;;;8299280;28;20087;-82
2022/06/05 10:06:26;;;;;;;5.70;3.40;;;;;;;;;;8297307;28;20054;-81
2022/06/05 10:10:36;;;;;;;6.50;3.05;;;;;;;;;;8299171;28;20053;-79
2022/06/05 10:14:50;;;;;;;8.00;2.97;;;;;;;;;;8299221;28;20053;-82
2022/06/05 10:19:00;;;;;;;4.72;3.30;;;;;;;;;;8299068;28;20049;-81
2022/06/05 10:23:23;;;;;;;4.72;3.08;;;;;;;;;;8299373;28;20492;-79
2022/06/05 10:27:26;;;;;;;5.13;3.10;;;;;;;;;;8296569;28;20112;-79
2022/06/05 10:31:32;;;;;;;8.20;3.25;;;;;;;;;;8298805;28;20054;-80
2022/06/05 10:35:47;;;;;;;7.85;2.97;;;;;;;;;;8298948;28;20050;-80
2022/06/05 10:40:13;;;;;;;5.07;2.90;;;;;;;;;;8297619;28;20069;-80
2022/06/05 10:44:27;;;;;;;3.63;2.72;;;;;;;;;;8294139;28;20053;-80
2022/06/05 10:48:47;;;;;;;4.15;2.53;;;;;;;;;;8298360;28;20045;-85
2022/06/05 10:52:57;;;;;;;3.85;2.45;;;;;;;;;;8298204;28;20038;-86
2022/06/05 10:57:05;;;;;;;3.58;2.47;;;;;;;;;;8297931;28;20049;-85
2022/06/05 11:01:52;;;;;;;7.07;2.45;;;;;;;;;;8298023;28;20469;-79
2022/06/05 11:06:12;;;;;;;3.40;2.50;;;;;;;;;;8262382;28;20118;-78
2022/06/05 11:14:58;;;;;;;4.38;2.10;;;;;;;;;;8296874;28;20046;-81
2022/06/05 11:19:12;;;;;;;3.08;2.40;;;;;;;;;;8297181;28;20046;-82
2022/06/05 11:23:21;;;;;;;3.08;2.22;;;;;;;;;;8297142;28;20523;-81
2022/06/05 11:27:30;;;;;;;4.93;2.20;;;;;;;;;;8297224;28;20049;-81
2022/06/05 11:31:42;;;;;;;2.28;1.55;;;;;;;;;;8297471;28;20119;-80
2022/06/05 11:36:03;;;;;;;2.42;1.80;;;;;;;;;;8297435;28;20046;-81
2022/06/05 11:40:19;;;;;;;3.30;1.65;;;;;;;;;;8296390;28;20042;-80
2022/06/05 11:44:36;;;;;;;2.40;1.98;;;;;;;;;;8294211;28;20050;-87
2022/06/05 11:48:44;;;;;;;3.00;1.92;;;;;;;;;;8296900;28;20045;-81
2022/06/05 11:52:54;;;;;;;2.65;1.98;;;;;;;;;;8298866;28;20046;-80
2022/06/05 11:57:10;;;;;;;2.53;1.73;;;;;;;;;;8303446;28;20471;-80
2022/06/05 12:01:17;;;;;;;1.83;1.52;;;;;;;;;;8302525;28;20050;-80
2022/06/05 12:05:28;;;;;;;2.33;1.70;;;;;;;;;;8297464;28;20093;-79
2022/06/05 12:09:33;;;;;;;;;;;;;;;;;;8303192;28;20046;-85
2022/06/05 12:13:49;;;;;;;2.40;1.85;;;;;;;;;;8303402;28;19922;-86
2022/06/05 12:18:00;;;;;;;3.42;1.75;;;;;;;;;;8303716;28;20046;-81
2022/06/05 12:22:07;;;;;;;1.90;1.60;;;;;;;;;;8302389;28;20141;-82
2022/06/05 12:26:22;;;;;;;2.85;1.55;;;;;;;;;;8302522;28;20046;-87
2022/06/05 12:30:30;;;;;;;1.98;1.63;;;;;;;;;;8302350;28;20093;-85
2022/06/05 12:34:41;;;;;;;1.98;1.38;;;;;;;;;;8302000;28;20050;-80
2022/06/05 12:38:48;;;;;;;1.85;1.42;;;;;;;;;;8301006;28;20045;-78
2022/06/05 12:42:58;;;;;;;1.88;1.50;;;;;;;;;;8296082;28;20045;-84
2022/06/05 12:47:09;;;;;;;1.98;1.50;;;;;;;;;;8290741;28;20515;-84
2022/06/05 12:51:18;;;;;;;2.35;1.63;;;;;;;;;;8292950;28;20391;-79
2022/06/05 12:55:26;;;;;;;1.60;1.50;;;;;;;;;;8293550;28;20069;-80
2022/06/05 12:59:40;;;;;;;2.25;1.40;;;;;;;;;;8285189;28;20587;-79
2022/06/05 13:03:47;;;;;;;4.18;1.60;;;;;;;;;;8285365;28;20448;-80
2022/06/05 13:07:58;;;;;;;2.92;1.60;;;;;;;;;;8288214;28;20054;-81
2022/06/05 13:12:11;;;;;;;1.67;1.40;;;;;;;;;;8295690;28;20490;-79
2022/06/05 13:16:28;;;;;;;1.30;1.20;;;;;;;;;;8295376;28;20046;-80
2022/06/05 13:20:39;;;;;;;1.63;1.48;;;;;;;;;;8294485;28;20073;-80
2022/06/05 13:25:06;;;;;;;1.55;1.20;;;;;;;;;;8293902;28;20042;-79
2022/06/05 13:29:39;;;;;;;2.08;1.30;;;;;;;;;;8292841;28;20058;-81
2022/06/05 13:33:49;;;;;;;1.98;1.40;;;;;;;;;;8299157;28;20042;-80
2022/06/05 13:38:02;;;;;;;2.28;1.30;;;;;;;;;;8300036;28;20056;-80
2022/06/05 13:42:12;;;;;;;1.30;1.20;;;;;;;;;;8299163;28;20457;-82
2022/06/05 13:46:25;;;;;;;3.53;1.60;;;;;;;;;;8298073;28;20053;-84
2022/06/05 13:50:36;;;;;;;1.65;1.25;;;;;;;;;;8292233;28;20446;-80
2022/06/05 13:54:49;;;;;;;1.45;1.35;;;;;;;;;;8292543;28;20042;-83
2022/06/05 13:58:57;;;;;;;2.33;1.50;;;;;;;;;;8296926;28;20046;-83
2022/06/05 14:03:04;;;;;;;1.40;1.30;;;;;;;;;;8296521;28;20049;-83
2022/06/05 14:07:12;;;;;;;2.40;1.92;;;;;;;;;;8294865;28;20469;-81
2022/06/05 14:11:20;;;;;;;1.60;1.50;;;;;;;;;;8297533;28;20056;-81
2022/06/05 14:15:27;;;;;;;2.28;1.70;;;;;;;;;;8293192;28;20057;-81
2022/06/05 14:19:36;;;;;;;2.53;1.60;;;;;;;;;;8295444;28;20096;-84
2022/06/05 14:23:44;;;;;;;3.63;2.10;;;;;;;;;;8291927;28;20038;-82
2022/06/05 14:27:55;;;;;;;2.20;1.50;;;;;;;;;;8291527;28;20054;-82
2022/06/05 14:32:00;;;;;;;;;;;;;;;;;;8292341;28;20045;-82
2022/06/05 14:36:04;;;;;;;3.33;2.17;;;;;;;;;;8281849;28;19932;-83
2022/06/05 14:40:13;;;;;;;3.70;2.20;;;;;;;;;;8287758;28;20054;-83
2022/06/05 14:44:23;;;;;;;3.50;2.15;;;;;;;;;;8281300;28;20050;-82
2022/06/05 14:48:31;;;;;;;2.28;1.70;;;;;;;;;;8288374;28;20053;-82
2022/06/05 14:52:44;;;;;;;3.90;1.70;;;;;;;;;;8286688;28;20494;-84
2022/06/05 15:01:22;;;;;;;2.05;1.40;;;;;;;;;;8284703;28;20041;-82
2022/06/05 15:05:29;;;;;;;2.28;1.63;;;;;;;;;;8287223;28;20054;-81
2022/06/05 15:09:40;;;;;;;2.58;1.60;;;;;;;;;;8290896;28;20073;-81
2022/06/05 15:13:51;;;;;;;6.35;3.80;;;;;;;;;;8284280;28;20049;-84
2022/06/05 15:17:58;;;;;;;1.92;1.63;;;;;;;;;;8291670;28;20482;-83
2022/06/05 15:22:16;;;;;;;2.95;1.80;;;;;;;;;;8292089;28;20049;-81
2022/06/05 15:26:35;;;;;;;3.05;1.73;;;;;;;;;;8293269;28;20465;-82
2022/06/05 15:30:46;;;;;;;2.38;1.50;;;;;;;;;;8293102;28;20794;-82
2022/06/05 15:34:59;;;;;;;2.03;1.60;;;;;;;;;;8291209;28;20379;-83
2022/06/05 15:39:19;;;;;;;3.88;1.95;;;;;;;;;;8293399;28;20331;-83
2022/06/05 15:43:49;;;;;;;1.77;1.63;;;;;;;;;;8291483;28;20063;-84
2022/06/05 15:48:20;;;;;;;1.88;1.50;;;;;;;;;;8288007;28;20050;-83
2022/06/05 15:52:43;;;;;;;1.50;1.40;;;;;;;;;;8290839;28;20108;-83
2022/06/05 15:57:10;;;;;;;3.45;1.50;;;;;;;;;;8293525;28;20050;-82
2022/06/05 16:01:18;;;;;;;1.90;1.48;;;;;;;;;;8293984;28;20073;-83
2022/06/05 16:05:26;;;;;;;2.05;1.50;;;;;;;;;;8277133;28;20088;-83
2022/06/05 16:09:37;;;;;;;2.33;1.80;;;;;;;;;;8299259;28;20544;-83
2022/06/05 16:13:43;;;;;;;2.17;1.70;;;;;;;;;;8299984;28;20096;-82
2022/06/05 16:18:03;;;;;;;2.33;1.60;;;;;;;;;;8301148;28;20052;-83
2022/06/05 16:22:14;;;;;;;1.40;1.30;;;;;;;;;;8302216;28;20054;-83
2022/06/05 16:26:34;;;;;;;2.03;1.50;;;;;;;;;;8299770;28;20065;-83
2022/06/05 16:30:41;;;;;;;3.00;1.60;;;;;;;;;;8300390;28;20780;-83
2022/06/05 16:39:04;;;;;;;4.03;1.90;;;;;;;;;;8296974;28;20041;-83
2022/06/05 16:43:20;;;;;;;2.63;1.70;;;;;;;;;;8299670;28;20054;-84
2022/06/05 16:47:46;;;;;;;1.70;1.52;;;;;;;;;;8297062;28;20053;-84
2022/06/05 16:51:49;;;;;;;3.53;2.00;;;;;;;;;;8299801;28;20046;-84
2022/06/05 16:56:17;;;;;;;4.40;2.00;;;;;;;;;;8300669;28;20056;-84
2022/06/05 17:00:29;;;;;;;2.65;1.58;;;;;;;;;;8286377;28;20158;-84
2022/06/05 17:04:35;;;;;;;2.45;1.60;;;;;;;;;;8298287;28;20057;-83
2022/06/05 17:08:48;;;;;;;2.40;1.75;;;;;;;;;;8295012;28;20097;-82
2022/06/05 17:12:55;;;;;;;6.22;1.70;;;;;;;;;;8294554;28;20494;-84
2022/06/05 17:17:15;;;;;;;1.60;1.50;;;;;;;;;;8298205;28;20152;-82
2022/06/05 17:21:21;;;;;;;4.43;2.60;;;;;;;;;;8296334;28;20049;-84
2022/06/05 17:25:47;;;;;;;8.20;5.30;;;;;;;;;;8296840;28;20038;-83
2022/06/05 17:30:18;;;;;;;4.82;3.22;;;;;;;;;;8296452;28;20119;-84
2022/06/05 17:34:33;;;;;;;3.03;2.22;;;;;;;;;;8293219;28;20054;-85
2022/06/05 17:39:07;;;;;;;2.03;1.83;;;;;;;;;;8297176;28;20053;-84
2022/06/05 17:43:20;;;;;;;4.97;1.90;;;;;;;;;;8289171;28;20120;-83
2022/06/05 17:47:45;;;;;;;2.10;1.80;;;;;;;;;;8297573;28;20049;-86
2022/06/05 17:51:52;;;;;;;3.30;1.60;;;;;;;;;;8299713;28;20064;-84
2022/06/05 17:55:59;;;;;;;4.55;2.03;;;;;;;;;;8299791;28;20042;-84
2022/06/05 18:00:18;;;;;;;2.50;2.15;;;;;;;;;;8298549;28;20046;-83
2022/06/05 18:04:24;;;;;;;11.85;5.85;;;;;;;;;;8299173;28;20046;-85
2022/06/05 18:08:32;;;;;;;11.52;7.35;;;;;;;;;;8295216;28;20054;-84
2022/06/05 18:12:38;;;;;;;5.65;3.17;;;;;;;;;;8281346;28;20041;-84
2022/06/05 18:16:45;;;;;;;7.00;2.65;;;;;;;;;;8290318;28;20042;-82
2022/06/05 18:20:52;;;;;;;14.55;10.57;;;;;;;;;;8297943;28;20042;-83
2022/06/05 18:24:57;;;;;;;6.30;4.32;;;;;;;;;;8293466;28;20124;-85
2022/06/05 18:29:01;;;;;;;5.38;3.38;;;;;;;;;;8297694;28;20045;-84
2022/06/05 18:33:11;;;;;;;6.97;3.72;;;;;;;;;;8293282;28;20042;-85
2022/06/05 18:42:14;;;;;;;5.68;2.88;;;;;;;;;;8294200;28;20053;-83
2022/06/05 18:46:32;;;;;;;5.03;3.30;;;;;;;;;;8288570;28;20045;-84
2022/06/05 18:50:41;;;;;;;5.53;3.15;;;;;;;;;;8289193;28;20042;-83
2022/06/05 18:54:51;;;;;;;5.55;2.83;;;;;;;;;;8289064;28;20061;-83
2022/06/05 18:58:56;;;;;;;6.07;3.92;;;;;;;;;;8295788;28;20074;-81
2022/06/05 19:03:02;;;;;;;16.77;9.43;;;;;;;;;;8297126;28;20052;-81
2022/06/05 19:07:11;;;;;;;6.38;4.35;;;;;;;;;;8296677;28;20073;-85
2022/06/05 19:11:21;;;;;;;5.75;2.97;;;;;;;;;;8296544;28;20045;-82
2022/06/05 19:15:37;;;;;;;7.57;5.72;;;;;;;;;;8295742;28;20050;-83
2022/06/05 19:19:45;;;;;;;8.82;5.88;;;;;;;;;;8294593;28;20041;-83
2022/06/05 19:23:57;;;;;;;4.70;3.15;;;;;;;;;;8294850;28;20054;-83
2022/06/05 19:28:04;;;;;;;13.40;4.25;;;;;;;;;;8297623;28;20053;-83
2022/06/05 19:32:13;;;;;;;6.68;2.90;;;;;;;;;;8298669;28;20050;-84
2022/06/05 19:40:43;;;;;;;4.00;3.10;;;;;;;;;;8301815;28;20553;-83
2022/06/05 19:44:49;;;;;;;3.85;3.17;;;;;;;;;;8305489;28;20417;-84
2022/06/05 19:48:54;;;;;;;4.03;3.08;;;;;;;;;;8286453;28;20042;-84
2022/06/05 19:52:59;;;;;;;5.13;3.60;;;;;;;;;;8298369;28;20231;-83
2022/06/05 19:57:10;;;;;;;7.63;4.05;;;;;;;;;;8293008;28;20133;-81
2022/06/05 20:01:21;;;;;;;5.60;3.67;;;;;;;;;;8297489;28;20505;-86
2022/06/05 20:05:34;;;;;;;4.90;3.55;;;;;;;;;;8292387;28;20124;-82
2022/06/05 20:09:49;;;;;;;5.30;3.92;;;;;;;;;;8277729;28;20050;-81
2022/06/05 20:14:09;;;;;;;6.55;4.07;;;;;;;;;;8297036;28;20046;-81
2022/06/05 20:18:25;;;;;;;6.22;4.18;;;;;;;;;;8302707;28;20092;-80
2022/06/05 20:22:42;;;;;;;9.93;4.82;;;;;;;;;;8301759;28;20054;-82
2022/06/05 20:26:50;;;;;;;7.07;4.50;;;;;;;;;;8300496;28;20067;-81
2022/06/05 20:30:58;;;;;;;5.60;3.80;;;;;;;;;;8302383;28;20050;-80
2022/06/05 20:35:05;;;;;;;5.32;3.90;;;;;;;;;;8301376;28;20104;-81
2022/06/05 20:39:20;;;;;;;5.97;4.00;;;;;;;;;;8301970;28;20057;-81
2022/06/05 20:43:24;;;;;;;6.75;4.80;;;;;;;;;;8301615;28;20085;-81
2022/06/05 20:47:31;;;;;;;12.32;6.18;;;;;;;;;;8296893;28;20073;-81
2022/06/05 20:51:35;;;;;;;9.48;4.63;;;;;;;;;;8296124;28;20108;-83
2022/06/05 20:55:44;;;;;;;6.05;4.30;;;;;;;;;;8295555;28;20448;-81
2022/06/05 20:59:47;;;;;;;7.03;4.90;;;;;;;;;;8278971;28;20488;-80
2022/06/05 21:08:16;;;;;;;8.45;6.43;;;;;;;;;;8296606;28;20061;-81
2022/06/05 21:16:58;;;;;;;7.15;4.88;;;;;;;;;;8298956;28;20046;-85
2022/06/05 21:21:01;;;;;;;7.55;5.38;;;;;;;;;;8292247;28;20076;-80
2022/06/05 21:25:07;;;;;;;7.85;5.78;;;;;;;;;;8292666;28;20383;-80
2022/06/05 21:29:12;;;;;;;10.07;5.30;;;;;;;;;;8292670;28;20099;-83
2022/06/05 21:33:15;;;;;;;7.57;4.93;;;;;;;;;;8296771;28;20053;-81
2022/06/05 21:37:18;;;;;;;8.13;6.20;;;;;;;;;;8298673;28;20085;-84
2022/06/05 21:41:39;;;;;;;7.72;5.43;;;;;;;;;;8297968;28;20116;-80
2022/06/05 21:45:50;;;;;;;8.75;5.93;;;;;;;;;;8296830;28;20042;-81
2022/06/05 21:49:53;;;;;;;6.83;4.90;;;;;;;;;;8298413;28;20044;-80
2022/06/05 21:53:56;;;;;;;8.88;6.40;;;;;;;;;;8296999;28;20049;-82
2022/06/05 21:58:02;;;;;;;9.75;6.68;;;;;;;;;;8299531;28;20056;-81
2022/06/05 22:02:06;;;;;;;10.93;6.80;;;;;;;;;;8299325;28;20125;-81
2022/06/05 22:06:17;;;;;;;7.70;5.70;;;;;;;;;;8297998;28;20050;-81
2022/06/05 22:10:19;;;;;;;10.10;6.57;;;;;;;;;;8294006;28;20049;-82
2022/06/05 22:14:24;;;;;;;8.88;6.85;;;;;;;;;;8298430;28;20100;-81
2022/06/05 22:18:29;;;;;;;9.45;6.57;;;;;;;;;;8292162;28;20046;-81
2022/06/05 22:22:32;;;;;;;10.60;7.50;;;;;;;;;;8287367;28;20053;-81
2022/06/05 22:26:34;;;;;;;13.13;8.13;;;;;;;;;;8289742;28;20054;-82
2022/06/05 22:30:40;;;;;;;10.88;7.57;;;;;;;;;;8292948;28;20046;-83
2022/06/05 22:34:44;;;;;;;12.80;7.78;;;;;;;;;;8290356;28;20042;-83
2022/06/05 22:38:50;;;;;;;11.65;7.85;;;;;;;;;;8289247;28;20799;-81
2022/06/05 22:42:52;;;;;;;9.75;7.38;;;;;;;;;;8292812;28;20042;-81
2022/06/05 22:46:55;;;;;;;10.70;7.88;;;;;;;;;;8295517;28;20481;-81
2022/06/05 22:50:59;;;;;;;9.50;6.90;;;;;;;;;;8284407;28;20108;-80
2022/06/05 22:55:05;;;;;;;11.00;7.90;;;;;;;;;;8279195;28;20048;-81
2022/06/05 22:59:07;;;;;;;10.23;7.80;;;;;;;;;;8282930;28;20047;-82
2022/06/05 23:03:10;;;;;;;12.40;8.10;;;;;;;;;;8289938;28;20042;-82
2022/06/05 23:07:14;;;;;;;13.38;8.52;;;;;;;;;;8295996;28;20049;-81
2022/06/05 23:11:17;;;;;;;11.13;7.95;;;;;;;;;;8294146;28;20057;-81
2022/06/05 23:15:20;;;;;;;14.57;9.38;;;;;;;;;;8286137;28;20145;-82
2022/06/05 23:19:40;;;;;;;15.40;9.25;;;;;;;;;;8292718;28;20466;-81
2022/06/05 23:23:44;;;;;;;12.93;9.30;;;;;;;;;;8288843;28;20046;-83
2022/06/05 23:27:47;;;;;;;13.20;9.50;;;;;;;;;;8288215;28;20145;-81
2022/06/05 23:31:50;;;;;;;14.25;9.73;;;;;;;;;;8295139;28;20053;-82
2022/06/05 23:36:01;;;;;;;15.90;10.25;;;;;;;;;;8295666;28;20046;-83
2022/06/05 23:40:07;;;;;;;12.95;10.25;;;;;;;;;;8291499;28;20103;-81
2022/06/05 23:44:09;;;;;;;12.73;10.10;;;;;;;;;;8293389;28;20046;-81
2022/06/05 23:48:12;;;;;;;12.05;9.80;;;;;;;;;;8294774;28;20108;-81
2022/06/05 23:52:14;;;;;;;12.60;8.80;;;;;;;;;;8299416;28;20038;-81
2022/06/05 23:56:21;;;;;;;13.60;9.20;;;;;;;;;;8302398;28;20041;-81
